Airfield :
LOGIN :

Register | Disclaimer

   EN    FR    IT 

 










Legend :    VFR   Marginal VFR   IFR   Intensive IFR   Very Intensive IFR
Visi :
Ceiling :
>= 8 km
>= 3000ft
5 to 8 km
1000 to 3000 ft
1500m to 5 km
500 to 1000 ft
800 to 1500m
200 to 500 ft
< 800m
< 200 ft
Symbols :   Thunderstorms  Fog  Heavy snow  Heavy precipitations  Wind > 20 kt
SIGMETs :     Misc.  Thunderstorms  Icing  Turbulence  Mountain Waves  Volcanic Ashes







- Airport Elevation : 479 ft
- IATA code : DOL
- Download approach charts


LFRG - Deauville

CURRENT METAR :
  • 151000Z AUTO 29016KT 9999 -RA FEW011/// BKN017/// BKN022/// ///CB 06/04 Q0995 TEMPO 2000 TSRAGS BECMG 34015G25KT

EXPIRED METARs :
  • 150930Z AUTO 28005KT 210V360 9999 3200 RA BKN009/// BKN015/// OVC025/// ///CB 05/04 Q0995 TEMPO 2000 TSRAGS BKN015 BECMG 34015G25KT
  • 150900Z AUTO 25011KT 220V280 9999 -DZ VCTS FEW013/// SCT027/// BKN033/// ///CB 05/04 Q0994 TEMPO 2000 TSRAGS BECMG 34015G25KT
  • 150830Z AUTO 24010KT 9999 FEW015/// BKN028/// BKN035/// ///TCU 05/04 Q0994 TEMPO 2000 TSRAGS BKN020CB BECMG 34015G25KT
  • 150800Z AUTO 25011KT 220V280 9999 BKN013/// BKN021/// BKN028/// ///CB 05/03 Q0995
  • 150730Z AUTO 24011KT 9999 ////// 05/03 Q0995

TAF TAF LFRG
Valid from the 15 at 09:00 until the 15 at 18:00 UTC


150800Z 1509/1518 22015KT 9999 SCT040
TEMPO 1509/1514 4000 SHRAGS BKN020CB
PROB40
TEMPO 1509/1513 2000 TSRAGS BKN015
BECMG 1510/1512 34015G25KT
PROB30
TEMPO 1514/1518 5000 SHRA BKN020CB
ATIS : +33 2 31 65 65 36
No reported NOTAMs for that airfield.



MET'MAP, your aeronautical weather chart ! - Copyright ORBIFLY December 2007 - Disclaimer

ORBIFLY MET'MAP TEAM :

Programming & Development : Alexandra Zaïnal
Concept & Development : Baudouin d'Aumeries
Co-Development & Prog : Marc-Olivier Méhu
Technical & hardware support : Manuel Goepfert

Contact : metmap@orbifly.com




SOURCES & CREDITS :

   NOAA